Time;durP1;ratioP1;P1;durP2;ratioP2;P2;SDS_P1;SDS_P2;PMS_P1;PMS_P2;Temp;Humidity;BMP_temperature;BMP_pressure;BME280_temperature;BME280_humidity;BME280_pressure;Samples;Min_cycle;Max_cycle;Signal;HPM_P1;HPM_P2
2022/03/22 00:01:29;;;;;;;56.03;29.65;;;5.00;71.80;;;;;;5066434;28;20040;-65
2022/03/22 00:03:54;;;;;;;49.73;30.83;;;5.00;71.70;;;;;;5044855;28;20050;-65
2022/03/22 00:06:21;;;;;;;48.13;29.27;;;5.00;71.60;;;;;;5066649;28;20044;-65
2022/03/22 00:08:47;;;;;;;49.90;30.27;;;5.00;71.60;;;;;;5099883;28;20098;-65
2022/03/22 00:11:13;;;;;;;48.60;27.70;;;5.00;71.90;;;;;;5050095;28;20033;-65
2022/03/22 00:13:42;;;;;;;48.47;29.90;;;5.00;72.10;;;;;;5065472;28;20439;-65
2022/03/22 00:16:08;;;;;;;49.38;31.00;;;5.00;72.00;;;;;;5052063;28;20082;-65
2022/03/22 00:18:35;;;;;;;49.03;30.25;;;5.00;72.30;;;;;;5065417;28;20044;-65
2022/03/22 00:21:01;;;;;;;48.15;29.35;;;4.90;72.40;;;;;;5068495;28;20075;-65
2022/03/22 00:23:28;;;;;;;48.87;29.70;;;4.90;72.70;;;;;;5123507;27;20123;-66
2022/03/22 00:25:54;;;;;;;48.03;30.63;;;4.90;72.80;;;;;;5093724;28;20047;-66
2022/03/22 00:28:20;;;;;;;46.42;29.25;;;4.80;72.80;;;;;;5106127;28;20044;-66
2022/03/22 00:30:46;;;;;;;49.23;30.20;;;4.80;73.00;;;;;;5074161;28;20035;-66
2022/03/22 00:33:11;;;;;;;43.50;28.37;;;4.80;73.00;;;;;;5089952;28;20047;-66
2022/03/22 00:35:39;;;;;;;48.93;29.43;;;4.80;73.00;;;;;;5107190;28;20051;-66
2022/03/22 00:38:11;;;;;;;48.47;30.83;;;4.80;73.10;;;;;;5090709;28;20051;-66
2022/03/22 00:40:38;;;;;;;50.15;30.60;;;4.80;73.20;;;;;;5096445;28;20117;-66
2022/03/22 00:43:04;;;;;;;48.50;31.63;;;4.80;73.50;;;;;;5093318;28;20023;-66
2022/03/22 00:45:34;;;;;;;52.15;31.00;;;4.70;73.50;;;;;;5072360;28;20047;-66
2022/03/22 00:48:02;;;;;;;47.95;30.30;;;4.70;73.70;;;;;;5097515;28;20118;-66
2022/03/22 00:50:31;;;;;;;51.25;31.83;;;4.70;73.50;;;;;;5131598;27;20551;-66
2022/03/22 00:52:58;;;;;;;54.08;32.05;;;4.70;73.70;;;;;;5074774;28;20506;-66
2022/03/22 00:55:27;;;;;;;50.33;30.92;;;4.80;73.90;;;;;;5101792;27;20039;-66
2022/03/22 00:57:54;;;;;;;53.00;32.30;;;4.80;73.80;;;;;;5097933;28;20496;-66
2022/03/22 01:00:24;;;;;;;46.60;29.83;;;4.80;73.90;;;;;;5122814;27;20053;-66
2022/03/22 01:02:52;;;;;;;54.35;33.50;;;4.80;74.00;;;;;;5088058;28;20073;-66
2022/03/22 01:05:19;;;;;;;55.03;32.47;;;4.80;74.10;;;;;;5123173;27;20075;-66
2022/03/22 01:07:54;;;;;;;52.95;32.38;;;4.80;74.20;;;;;;5110782;27;20043;-66
2022/03/22 01:10:22;;;;;;;51.15;31.83;;;4.80;74.30;;;;;;5125288;27;20054;-66
2022/03/22 01:12:49;;;;;;;53.72;32.83;;;4.80;74.30;;;;;;5088444;28;20423;-66
2022/03/22 01:15:24;;;;;;;49.65;30.85;;;4.80;74.40;;;;;;5095474;28;20032;-66
2022/03/22 01:17:54;;;;;;;52.65;32.20;;;4.80;74.30;;;;;;5120170;27;20403;-66
2022/03/22 01:20:22;;;;;;;55.78;34.28;;;4.80;74.20;;;;;;5105772;28;20116;-66
2022/03/22 01:22:49;;;;;;;53.08;33.50;;;4.80;74.30;;;;;;5070875;28;20054;-66
2022/03/22 01:25:18;;;;;;;53.65;33.28;;;4.80;74.40;;;;;;5119630;27;20027;-66
2022/03/22 01:27:46;;;;;;;52.65;33.08;;;4.80;74.50;;;;;;5122596;27;20054;-66
2022/03/22 01:30:13;;;;;;;56.28;34.28;;;4.80;74.40;;;;;;5074255;28;20135;-66
2022/03/22 01:32:39;;;;;;;55.78;33.40;;;4.80;74.50;;;;;;5091107;28;20054;-66
2022/03/22 01:35:08;;;;;;;52.65;34.08;;;4.80;74.50;;;;;;5075661;28;20082;-66
2022/03/22 01:37:34;;;;;;;54.15;33.42;;;4.80;74.50;;;;;;5073440;28;20044;-66
2022/03/22 01:39:59;;;;;;;54.07;33.60;;;4.70;74.80;;;;;;5078799;28;20040;-66
2022/03/22 01:42:25;;;;;;;58.43;32.27;;;4.80;75.00;;;;;;5081636;28;20047;-66
2022/03/22 01:44:53;;;;;;;58.33;35.83;;;4.70;74.90;;;;;;5096747;28;20518;-66
2022/03/22 01:47:20;;;;;;;55.85;34.33;;;4.70;74.90;;;;;;5089055;28;20377;-66
2022/03/22 01:49:47;;;;;;;53.58;33.50;;;4.80;75.00;;;;;;5124492;27;20078;-66
2022/03/22 01:52:19;;;;;;;52.38;34.15;;;4.80;75.10;;;;;;5122527;27;20046;-66
2022/03/22 01:54:46;;;;;;;55.92;33.92;;;4.80;75.10;;;;;;5103049;28;20049;-66
2022/03/22 01:57:12;;;;;;;57.72;33.83;;;4.80;75.20;;;;;;5083531;28;20040;-66
2022/03/22 01:59:38;;;;;;;55.00;33.90;;;4.80;75.20;;;;;;5072087;28;20050;-66
2022/03/22 02:07:40;;;;;;;54.80;34.10;;;4.80;75.30;;;;;;5097336;28;20046;-66
2022/03/22 02:10:06;;;;;;;57.30;34.58;;;4.80;75.20;;;;;;5102526;28;20039;-66
2022/03/22 02:12:32;;;;;;;55.60;34.28;;;4.80;75.20;;;;;;5101543;28;20043;-66
2022/03/22 02:14:57;;;;;;;56.07;34.93;;;4.80;75.40;;;;;;5071556;28;20282;-66
2022/03/22 02:17:23;;;;;;;55.00;33.37;;;4.80;75.40;;;;;;5109053;28;20082;-66
2022/03/22 02:19:50;;;;;;;56.97;34.27;;;4.80;75.30;;;;;;5074399;28;20571;-66
2022/03/22 02:22:18;;;;;;;56.08;34.55;;;4.80;75.30;;;;;;5095779;28;20040;-66
2022/03/22 02:24:44;;;;;;;56.55;35.95;;;4.70;75.20;;;;;;5088551;28;20458;-66
2022/03/22 02:27:10;;;;;;;55.92;35.83;;;4.70;75.30;;;;;;5082084;28;20051;-66
2022/03/22 02:29:36;;;;;;;59.57;35.87;;;4.70;75.40;;;;;;5074456;28;20181;-66
2022/03/22 02:32:04;;;;;;;56.10;34.22;;;4.70;75.30;;;;;;5105526;28;20301;-66
2022/03/22 02:34:30;;;;;;;59.83;36.20;;;4.70;75.40;;;;;;5090745;28;20040;-66
2022/03/22 02:36:57;;;;;;;56.95;36.50;;;4.70;75.40;;;;;;5096871;28;20468;-66
2022/03/22 02:39:24;;;;;;;61.03;36.53;;;4.60;75.40;;;;;;5125387;27;20036;-66
2022/03/22 02:41:51;;;;;;;57.75;35.58;;;4.60;75.50;;;;;;5104949;28;20488;-66
2022/03/22 02:44:20;;;;;;;56.28;35.78;;;4.60;75.50;;;;;;5076344;28;20401;-66
2022/03/22 02:46:47;;;;;;;55.13;33.95;;;4.60;75.50;;;;;;5094923;28;20130;-66
2022/03/22 02:49:13;;;;;;;58.22;35.83;;;4.60;75.40;;;;;;5095399;27;20118;-66
2022/03/22 02:51:40;;;;;;;59.93;34.03;;;4.50;75.50;;;;;;5094979;27;20123;-66
2022/03/22 02:54:06;;;;;;;56.33;36.17;;;4.50;75.50;;;;;;5082036;28;20035;-66
2022/03/22 02:56:32;;;;;;;54.60;34.83;;;4.50;75.40;;;;;;5099399;28;20093;-66
2022/03/22 02:58:59;;;;;;;62.63;35.95;;;4.50;75.40;;;;;;5123557;27;20035;-66
2022/03/22 03:01:25;;;;;;;58.25;35.67;;;4.50;75.50;;;;;;5091400;28;20055;-66
2022/03/22 03:03:51;;;;;;;54.47;34.40;;;4.50;75.50;;;;;;5092544;28;20397;-66
2022/03/22 03:06:16;;;;;;;61.20;34.80;;;4.50;75.50;;;;;;5098228;28;20186;-66
2022/03/22 03:08:42;;;;;;;59.33;36.23;;;4.50;75.50;;;;;;5108548;27;20492;-66
2022/03/22 03:11:09;;;;;;;55.87;34.10;;;4.50;75.50;;;;;;5073367;28;20100;-66
2022/03/22 03:16:19;;;;;;;57.42;33.83;;;4.60;75.40;;;;;;5102954;28;20047;-66
2022/03/22 03:18:45;;;;;;;59.10;36.10;;;4.60;75.40;;;;;;5082937;28;20561;-66
2022/03/22 03:21:11;;;;;;;60.22;37.05;;;4.60;75.30;;;;;;5093079;28;20519;-66
2022/03/22 03:23:37;;;;;;;58.13;35.67;;;4.50;75.50;;;;;;5106545;28;20683;-66
2022/03/22 03:26:03;;;;;;;56.97;35.33;;;4.60;75.50;;;;;;5076917;28;20036;-66
2022/03/22 03:28:28;;;;;;;58.00;35.60;;;4.60;75.50;;;;;;5090021;28;20044;-66
2022/03/22 03:30:54;;;;;;;62.83;36.23;;;4.60;75.50;;;;;;5124962;27;20480;-66
2022/03/22 03:33:20;;;;;;;55.30;34.80;;;4.60;75.30;;;;;;5092952;28;20071;-66
2022/03/22 03:35:45;;;;;;;61.57;35.50;;;4.60;75.40;;;;;;5107645;28;20047;-66
2022/03/22 03:38:11;;;;;;;58.47;35.47;;;4.60;75.50;;;;;;5073601;28;20096;-66
2022/03/22 03:43:21;;;;;;;60.47;35.92;;;4.60;75.30;;;;;;5099064;28;20426;-66
2022/03/22 03:48:32;;;;;;;58.22;35.22;;;4.60;75.50;;;;;;5083244;28;20040;-66
2022/03/22 03:50:58;;;;;;;56.15;34.15;;;4.60;75.50;;;;;;5107782;27;20046;-66
2022/03/22 03:53:24;;;;;;;56.57;34.53;;;4.50;75.50;;;;;;5094622;28;20525;-66
2022/03/22 03:55:50;;;;;;;58.97;35.87;;;4.50;75.50;;;;;;5090078;28;20468;-66
2022/03/22 03:58:15;;;;;;;54.60;32.57;;;4.50;75.70;;;;;;5073393;28;20461;-66
2022/03/22 04:00:41;;;;;;;55.77;34.37;;;4.40;75.60;;;;;;5090408;28;20047;-66
2022/03/22 04:03:07;;;;;;;55.30;33.77;;;4.40;75.70;;;;;;5096494;28;20039;-66
2022/03/22 04:05:33;;;;;;;55.20;33.50;;;4.30;75.70;;;;;;5107735;28;20147;-66
2022/03/22 04:07:59;;;;;;;59.47;35.87;;;4.30;75.70;;;;;;5107085;28;20548;-66
2022/03/22 04:10:25;;;;;;;56.43;35.33;;;4.20;75.60;;;;;;5089992;28;20122;-66
2022/03/22 04:12:50;;;;;;;56.07;34.70;;;4.20;75.70;;;;;;5083199;28;20488;-66
2022/03/22 04:15:16;;;;;;;54.57;34.43;;;4.10;75.70;;;;;;5081231;27;20361;-66
2022/03/22 04:17:42;;;;;;;58.10;34.40;;;4.10;75.80;;;;;;5089340;28;20043;-66
2022/03/22 04:20:09;;;;;;;58.00;35.47;;;4.10;75.90;;;;;;5064153;27;20108;-66
2022/03/22 04:22:35;;;;;;;59.53;35.47;;;4.10;76.10;;;;;;5089988;28;20100;-66
2022/03/22 04:25:01;;;;;;;60.13;35.15;;;4.10;76.10;;;;;;5106821;27;20698;-66
2022/03/22 04:32:57;;;;;;;61.47;37.85;;;4.00;76.30;;;;;;5123231;27;20058;-66
2022/03/22 04:35:27;;;;;;;62.42;37.35;;;4.00;76.10;;;;;;5090084;28;20095;-66
2022/03/22 04:37:54;;;;;;;60.05;36.65;;;4.00;76.20;;;;;;5075196;28;20070;-66
2022/03/22 04:40:20;;;;;;;60.92;37.13;;;4.00;76.30;;;;;;5083879;28;20467;-66
2022/03/22 04:42:52;;;;;;;63.33;38.63;;;4.00;76.30;;;;;;5072935;28;20035;-66
2022/03/22 04:45:18;;;;;;;64.07;37.97;;;4.00;76.40;;;;;;5105767;28;20047;-66
2022/03/22 04:47:45;;;;;;;63.30;36.43;;;4.00;76.50;;;;;;5095655;28;20039;-66
2022/03/22 04:50:13;;;;;;;61.50;37.47;;;4.00;76.40;;;;;;5122664;27;20038;-66
2022/03/22 04:58:08;;;;;;;65.47;38.97;;;4.00;76.40;;;;;;5076980;28;20104;-66
2022/03/22 05:00:35;;;;;;;61.10;37.22;;;4.00;76.50;;;;;;5086968;28;20050;-66
2022/03/22 05:03:05;;;;;;;63.10;36.33;;;3.90;76.50;;;;;;5089852;28;20071;-66
2022/03/22 05:08:15;;;;;;;67.90;38.92;;;3.90;76.40;;;;;;5100573;28;20045;-66
2022/03/22 05:10:41;;;;;;;65.60;39.57;;;3.90;76.60;;;;;;5106408;28;20035;-66
2022/03/22 05:13:07;;;;;;;68.07;39.13;;;3.80;76.60;;;;;;5105712;27;20442;-66
2022/03/22 05:15:32;;;;;;;64.23;37.93;;;3.80;76.70;;;;;;5080241;28;20074;-66
2022/03/22 05:17:59;;;;;;;68.53;39.20;;;3.80;76.80;;;;;;5078569;28;20051;-65
2022/03/22 05:20:25;;;;;;;62.13;38.10;;;3.80;76.80;;;;;;5077099;28;20113;-65
2022/03/22 05:22:51;;;;;;;62.30;36.27;;;3.80;76.80;;;;;;5089371;28;20047;-65
2022/03/22 05:25:18;;;;;;;65.53;38.50;;;3.80;76.90;;;;;;5099178;28;20085;-65
2022/03/22 05:27:44;;;;;;;64.47;38.33;;;3.80;76.80;;;;;;5095678;28;20800;-65
2022/03/22 05:30:10;;;;;;;66.13;38.73;;;3.80;76.80;;;;;;5075457;28;20040;-65
2022/03/22 05:32:36;;;;;;;62.90;38.20;;;3.80;76.90;;;;;;5122444;27;20335;-65
2022/03/22 05:35:02;;;;;;;69.37;40.07;;;3.80;76.90;;;;;;5105442;28;20370;-65
2022/03/22 05:37:27;;;;;;;60.83;37.60;;;3.80;76.90;;;;;;5103952;28;20044;-65
2022/03/22 05:39:53;;;;;;;65.03;37.77;;;3.80;77.00;;;;;;5122100;27;20039;-65
2022/03/22 05:42:19;;;;;;;61.00;38.30;;;3.70;76.90;;;;;;5122765;27;20450;-65
2022/03/22 05:44:45;;;;;;;64.80;39.20;;;3.70;76.90;;;;;;5093948;28;20089;-65
2022/03/22 05:47:11;;;;;;;67.65;39.92;;;3.70;76.80;;;;;;5059041;28;20068;-65
2022/03/22 05:49:38;;;;;;;66.47;39.33;;;3.70;77.00;;;;;;5099311;28;20401;-66
2022/03/22 05:52:05;;;;;;;59.35;36.25;;;3.70;77.00;;;;;;5073072;28;20387;-66
2022/03/22 05:54:32;;;;;;;69.22;40.33;;;3.70;77.10;;;;;;5122270;27;20151;-66
2022/03/22 05:56:58;;;;;;;63.60;37.97;;;3.70;77.10;;;;;;5119347;27;20511;-66
2022/03/22 05:59:24;;;;;;;70.03;40.33;;;3.70;77.10;;;;;;5085835;28;20476;-66
2022/03/22 06:01:50;;;;;;;65.27;39.40;;;3.80;77.10;;;;;;5122245;27;20043;-66
2022/03/22 06:04:16;;;;;;;64.10;38.33;;;3.80;77.20;;;;;;5105338;28;20031;-66
2022/03/22 06:06:42;;;;;;;62.25;36.58;;;3.80;77.20;;;;;;5078191;28;20044;-66
2022/03/22 06:09:08;;;;;;;64.10;37.53;;;3.80;77.30;;;;;;5071049;28;20091;-66
2022/03/22 06:11:37;;;;;;;63.03;38.13;;;3.90;77.30;;;;;;5089621;28;20053;-66
2022/03/22 06:14:06;;;;;;;63.58;37.53;;;3.90;77.30;;;;;;5100037;28;20242;-66
2022/03/22 06:16:32;;;;;;;64.68;39.33;;;3.90;77.30;;;;;;5110382;28;20051;-65
2022/03/22 06:18:59;;;;;;;64.13;37.97;;;4.00;77.10;;;;;;5098323;28;20056;-66
2022/03/22 06:21:25;;;;;;;67.82;38.92;;;4.10;77.30;;;;;;5107349;27;20081;-66
2022/03/22 06:23:52;;;;;;;66.00;38.85;;;4.20;77.30;;;;;;5092849;28;20050;-66
2022/03/22 06:26:18;;;;;;;62.55;38.70;;;4.20;77.10;;;;;;5081687;28;20039;-66
2022/03/22 06:28:44;;;;;;;62.75;38.20;;;4.30;77.40;;;;;;5111734;27;20035;-66
2022/03/22 06:31:10;;;;;;;64.05;38.08;;;4.40;77.20;;;;;;5128330;27;20042;-66
2022/03/22 06:33:36;;;;;;;62.30;39.63;;;4.50;77.20;;;;;;5112081;27;20057;-66
2022/03/22 06:36:04;;;;;;;64.83;38.83;;;4.50;77.00;;;;;;5081620;28;20039;-66
2022/03/22 06:38:32;;;;;;;62.72;37.85;;;4.60;77.10;;;;;;5092021;27;20043;-66
2022/03/22 06:40:59;;;;;;;61.50;38.20;;;4.70;77.00;;;;;;5092124;28;20114;-66
2022/03/22 06:43:24;;;;;;;66.95;38.90;;;4.80;77.00;;;;;;5085982;28;20042;-66
2022/03/22 06:45:50;;;;;;;65.23;40.10;;;4.90;76.80;;;;;;5080181;28;20450;-66
2022/03/22 06:48:16;;;;;;;67.67;40.20;;;5.00;76.70;;;;;;5091959;28;20405;-66
2022/03/22 06:50:44;;;;;;;62.03;37.50;;;5.20;76.70;;;;;;5101235;28;20500;-66
2022/03/22 06:53:10;;;;;;;62.13;38.42;;;5.30;76.80;;;;;;5110646;28;20071;-66
2022/03/22 06:55:37;;;;;;;62.78;39.00;;;5.40;76.80;;;;;;5102735;27;20039;-66
2022/03/22 06:58:04;;;;;;;62.35;38.63;;;5.50;76.60;;;;;;5075549;28;20455;-66
2022/03/22 07:00:31;;;;;;;64.28;39.08;;;5.60;76.50;;;;;;5128882;27;20050;-66
2022/03/22 07:02:58;;;;;;;62.10;38.17;;;5.80;76.50;;;;;;5101348;28;20175;-66
2022/03/22 07:05:24;;;;;;;61.67;39.50;;;5.90;76.40;;;;;;5110707;28;20040;-66
2022/03/22 07:07:50;;;;;;;59.50;38.55;;;6.00;76.20;;;;;;5106429;28;20035;-66
2022/03/22 07:10:18;;;;;;;56.33;36.93;;;6.10;76.10;;;;;;5097367;28;20560;-66
2022/03/22 07:12:59;;;;;;;58.75;36.90;;;6.20;75.90;;;;;;5128643;27;20036;-66
2022/03/22 07:15:30;;;;;;;62.22;37.63;;;6.30;75.70;;;;;;5101935;28;20404;-66
2022/03/22 07:17:58;;;;;;;60.28;36.53;;;6.40;75.50;;;;;;5088634;28;20043;-66
2022/03/22 07:20:24;;;;;;;56.10;35.78;;;6.50;75.40;;;;;;5089218;28;20059;-65
2022/03/22 07:22:50;;;;;;;57.55;37.10;;;6.60;75.20;;;;;;5069405;28;20044;-65
2022/03/22 07:25:17;;;;;;;59.77;35.27;;;6.70;75.00;;;;;;5076494;28;20326;-65
2022/03/22 07:27:44;;;;;;;53.15;35.42;;;6.70;74.80;;;;;;5103080;28;20403;-65
2022/03/22 07:30:11;;;;;;;56.72;35.97;;;6.80;74.60;;;;;;5093624;27;20039;-65
2022/03/22 07:32:38;;;;;;;58.65;38.05;;;6.90;74.40;;;;;;5095012;28;20051;-65
2022/03/22 07:35:04;;;;;;;53.72;35.92;;;6.90;74.30;;;;;;5099106;28;20040;-65
2022/03/22 07:37:30;;;;;;;56.85;37.08;;;6.90;74.30;;;;;;5107970;27;20079;-65
2022/03/22 07:39:59;;;;;;;53.03;35.53;;;7.00;74.20;;;;;;5080042;28;20582;-65
2022/03/22 07:42:29;;;;;;;54.85;34.97;;;7.00;74.40;;;;;;5106615;28;20055;-65
2022/03/22 07:45:01;;;;;;;55.67;35.45;;;7.10;74.30;;;;;;5087572;28;20043;-65
2022/03/22 07:47:28;;;;;;;58.47;37.17;;;7.20;74.30;;;;;;5117933;27;20044;-65
2022/03/22 07:55:24;;;;;;;54.03;33.90;;;7.60;73.90;;;;;;5123430;27;20042;-66
2022/03/22 07:57:50;;;;;;;59.58;36.78;;;7.80;73.50;;;;;;5077170;28;20044;-66
2022/03/22 08:00:18;;;;;;;51.87;34.93;;;8.00;73.10;;;;;;5086688;28;20069;-66
2022/03/22 08:02:55;;;;;;;51.70;33.78;;;8.10;72.80;;;;;;5083678;28;20047;-66
2022/03/22 08:05:22;;;;;;;58.55;37.00;;;8.30;72.70;;;;;;5089306;28;20040;-68
2022/03/22 08:07:49;;;;;;;55.03;34.67;;;8.40;72.40;;;;;;5088438;28;20039;-68
2022/03/22 08:10:15;;;;;;;52.50;36.25;;;8.60;72.40;;;;;;5089508;28;20503;-68
2022/03/22 08:12:41;;;;;;;55.97;36.92;;;8.70;72.50;;;;;;5090748;28;20116;-68
2022/03/22 08:15:09;;;;;;;56.97;36.13;;;8.80;72.40;;;;;;5086144;28;20047;-68
2022/03/22 08:17:39;;;;;;;50.83;33.67;;;9.00;72.00;;;;;;5083624;27;20066;-68
2022/03/22 08:20:07;;;;;;;50.60;34.30;;;9.20;71.60;;;;;;5054534;28;20109;-68
2022/03/22 08:22:45;;;;;;;48.58;33.72;;;9.30;71.30;;;;;;5101014;28;20540;-68
2022/03/22 08:25:11;;;;;;;54.65;35.22;;;9.40;70.90;;;;;;5100457;28;20452;-68
2022/03/22 08:27:37;;;;;;;52.80;33.72;;;9.60;70.90;;;;;;5100098;28;20524;-68
2022/03/22 08:30:06;;;;;;;50.27;34.73;;;9.70;71.00;;;;;;5062484;28;20120;-68
2022/03/22 08:32:32;;;;;;;51.72;33.20;;;9.90;70.50;;;;;;5099292;28;20306;-69
2022/03/22 08:34:58;;;;;;;51.55;35.50;;;10.00;70.20;;;;;;5064190;28;20036;-68
2022/03/22 08:37:24;;;;;;;52.80;34.83;;;10.20;69.70;;;;;;5081040;28;20045;-68
2022/03/22 08:39:50;;;;;;;51.77;34.77;;;10.30;69.70;;;;;;5032438;28;20048;-69
2022/03/22 08:42:16;;;;;;;50.10;33.55;;;10.50;69.40;;;;;;5059949;28;20056;-70
2022/03/22 08:44:44;;;;;;;46.78;35.20;;;10.70;69.40;;;;;;5065689;28;20036;-70
2022/03/22 08:47:10;;;;;;;53.42;35.65;;;10.90;69.30;;;;;;5048268;28;20032;-70
2022/03/22 08:49:35;;;;;;;48.83;34.07;;;11.10;68.80;;;;;;5063725;28;20093;-70
2022/03/22 08:52:01;;;;;;;49.90;33.03;;;11.20;67.80;;;;;;5100454;28;20282;-70
2022/03/22 08:54:27;;;;;;;48.70;35.50;;;11.30;68.00;;;;;;5064619;28;20052;-70
2022/03/22 08:56:53;;;;;;;49.50;34.57;;;11.40;67.50;;;;;;5038419;28;20303;-70
2022/03/22 08:59:19;;;;;;;52.50;33.20;;;11.50;67.20;;;;;;5064333;28;20096;-70
2022/03/22 09:01:45;;;;;;;48.93;34.57;;;11.60;67.30;;;;;;5048847;28;20103;-70
2022/03/22 09:06:55;;;;;;;50.67;35.08;;;11.80;66.90;;;;;;5099393;28;20355;-69
2022/03/22 09:09:21;;;;;;;49.90;32.97;;;11.90;66.90;;;;;;5049154;28;20040;-69
2022/03/22 09:11:47;;;;;;;45.07;32.57;;;12.00;67.00;;;;;;5100010;28;20048;-69
2022/03/22 09:14:13;;;;;;;44.57;32.93;;;12.10;65.60;;;;;;5082848;28;20040;-69
2022/03/22 09:16:39;;;;;;;50.27;33.13;;;12.10;65.70;;;;;;5082475;28;20047;-69
2022/03/22 09:19:04;;;;;;;51.03;33.33;;;12.20;65.70;;;;;;5072862;28;20067;-69
2022/03/22 09:21:30;;;;;;;48.17;34.13;;;12.30;65.00;;;;;;5093273;28;20048;-69
2022/03/22 09:23:56;;;;;;;47.43;32.73;;;12.40;65.50;;;;;;5090893;28;20039;-69
2022/03/22 09:26:22;;;;;;;46.63;33.47;;;12.50;65.70;;;;;;5075969;28;20134;-69
2022/03/22 09:28:52;;;;;;;46.33;33.63;;;12.60;65.40;;;;;;5093406;28;20483;-69
2022/03/22 09:31:20;;;;;;;45.80;32.97;;;12.70;65.60;;;;;;5080735;27;20047;-70
2022/03/22 09:33:47;;;;;;;49.03;33.47;;;12.80;65.10;;;;;;5070139;27;20813;-70
2022/03/22 09:36:12;;;;;;;46.20;33.57;;;12.80;65.20;;;;;;5089773;28;20799;-70
2022/03/22 09:38:38;;;;;;;45.23;32.33;;;12.90;65.00;;;;;;5102053;28;20297;-70
2022/03/22 09:41:05;;;;;;;46.47;33.40;;;13.00;64.90;;;;;;5075636;28;20075;-70
2022/03/22 09:43:33;;;;;;;46.43;32.77;;;13.00;65.00;;;;;;5086070;28;20369;-70
2022/03/22 09:46:02;;;;;;;50.13;34.37;;;13.10;65.00;;;;;;5092281;28;20661;-70
2022/03/22 09:48:31;;;;;;;45.67;31.47;;;13.20;65.00;;;;;;5120809;27;20375;-70
2022/03/22 09:53:41;;;;;;;46.30;33.25;;;13.40;64.30;;;;;;5115973;27;20777;-70
2022/03/22 09:56:08;;;;;;;42.73;31.43;;;13.40;64.40;;;;;;5099300;28;20367;-70
2022/03/22 09:58:34;;;;;;;44.70;32.13;;;13.50;63.70;;;;;;5114679;27;20085;-70
2022/03/22 10:01:00;;;;;;;44.03;31.87;;;13.60;63.90;;;;;;5084260;28;20418;-70
2022/03/22 10:03:25;;;;;;;45.33;32.50;;;13.70;63.40;;;;;;5117140;27;20292;-70
2022/03/22 10:06:03;;;;;;;44.00;31.13;;;13.80;63.40;;;;;;5063365;28;20047;-70
2022/03/22 10:08:29;;;;;;;45.43;32.67;;;13.90;62.30;;;;;;5117575;27;20039;-69
2022/03/22 10:11:00;;;;;;;44.33;30.23;;;14.00;62.80;;;;;;5100181;28;20337;-69
2022/03/22 10:13:28;;;;;;;42.10;31.43;;;14.10;61.70;;;;;;5101690;28;20281;-69
2022/03/22 10:16:02;;;;;;;46.30;33.17;;;14.10;61.90;;;;;;5105883;28;20289;-69
2022/03/22 10:18:28;;;;;;;50.10;31.80;;;14.30;62.70;;;;;;5117895;27;20696;-69
2022/03/22 10:21:01;;;;;;;42.60;31.40;;;14.40;62.70;;;;;;5102061;28;20305;-69
2022/03/22 10:23:30;;;;;;;41.17;31.40;;;14.50;60.90;;;;;;5072389;28;20066;-69
2022/03/22 10:26:07;;;;;;;46.80;31.90;;;14.60;61.00;;;;;;5071000;28;20340;-69
2022/03/22 10:28:34;;;;;;;40.90;29.73;;;14.70;61.20;;;;;;5087874;28;20277;-70
2022/03/22 10:31:01;;;;;;;43.97;30.90;;;14.80;61.40;;;;;;5121925;27;20281;-69
2022/03/22 10:33:27;;;;;;;41.47;30.53;;;15.00;60.40;;;;;;5091769;28;20869;-69
2022/03/22 10:35:53;;;;;;;41.10;28.23;;;15.10;59.70;;;;;;5122044;27;20378;-69
2022/03/22 10:38:19;;;;;;;39.93;28.60;;;15.20;59.70;;;;;;5057062;28;20051;-69
2022/03/22 10:40:46;;;;;;;38.80;28.37;;;15.30;58.50;;;;;;5086222;28;20297;-70
2022/03/22 10:43:22;;;;;;;39.23;27.93;;;15.30;58.40;;;;;;5086671;28;20312;-70
2022/03/22 10:45:56;;;;;;;37.23;27.63;;;15.40;57.90;;;;;;5120304;27;20306;-70
2022/03/22 10:48:26;;;;;;;42.30;29.60;;;15.50;58.80;;;;;;5086629;28;20285;-70
2022/03/22 10:50:53;;;;;;;39.47;28.77;;;15.60;58.70;;;;;;5089661;28;20075;-70
2022/03/22 10:53:21;;;;;;;41.07;29.50;;;15.70;58.50;;;;;;5090925;28;20281;-70
2022/03/22 10:55:48;;;;;;;38.37;28.70;;;15.80;59.10;;;;;;5121826;27;20321;-70
2022/03/22 10:58:18;;;;;;;40.87;27.17;;;15.90;58.80;;;;;;5107894;27;20812;-70
2022/03/22 11:00:45;;;;;;;37.83;28.90;;;16.00;58.30;;;;;;5077134;28;20923;-70
2022/03/22 11:03:12;;;;;;;37.07;28.33;;;16.10;58.20;;;;;;5125931;27;20372;-70
2022/03/22 11:05:41;;;;;;;36.73;27.53;;;16.20;57.20;;;;;;5123356;27;20317;-70
2022/03/22 11:08:07;;;;;;;39.20;28.27;;;16.40;57.80;;;;;;5090529;27;20640;-70
2022/03/22 11:10:33;;;;;;;38.27;28.37;;;16.40;57.00;;;;;;5097550;28;20289;-70
2022/03/22 11:12:59;;;;;;;38.47;28.33;;;16.50;56.90;;;;;;5091152;28;20760;-69
2022/03/22 11:15:35;;;;;;;35.47;27.13;;;16.60;56.00;;;;;;5103035;28;20047;-71
2022/03/22 11:18:02;;;;;;;37.03;26.93;;;16.60;56.20;;;;;;5096224;28;20752;-71
2022/03/22 11:20:28;;;;;;;36.07;26.13;;;16.70;56.40;;;;;;5094535;28;20306;-71
2022/03/22 11:22:56;;;;;;;36.07;26.23;;;16.90;55.90;;;;;;5123365;27;20307;-71
2022/03/22 11:25:37;;;;;;;37.13;25.90;;;16.90;54.70;;;;;;5097656;27;20047;-71
2022/03/22 11:28:09;;;;;;;37.47;26.70;;;17.00;55.20;;;;;;5105369;28;20384;-71
2022/03/22 11:30:37;;;;;;;34.73;25.63;;;17.10;55.40;;;;;;5077512;28;20330;-71
2022/03/22 11:35:57;;;;;;;33.00;23.60;;;17.40;54.70;;;;;;5088068;28;20296;-71
2022/03/22 11:38:46;;;;;;;36.73;25.60;;;17.50;54.30;;;;;;5096438;28;20789;-71
2022/03/22 11:44:41;;;;;;;32.93;23.97;;;17.60;53.80;;;;;;5124565;27;20734;-71
2022/03/22 11:47:07;;;;;;;32.90;23.60;;;17.70;52.60;;;;;;5088232;27;20354;-71
2022/03/22 11:49:52;;;;;;;33.60;24.43;;;17.70;52.50;;;;;;5073857;28;20290;-72
2022/03/22 11:52:20;;;;;;;35.95;24.45;;;17.80;52.60;;;;;;5091870;28;20281;-72
2022/03/22 11:55:01;;;;;;;33.80;22.93;;;17.90;53.10;;;;;;5119570;27;20043;-72
2022/03/22 11:57:27;;;;;;;33.47;23.00;;;17.90;51.40;;;;;;5124400;27;21028;-71
2022/03/22 11:59:54;;;;;;;40.13;25.27;;;18.00;52.50;;;;;;5089167;28;20301;-71
2022/03/22 12:02:34;;;;;;;33.23;23.03;;;18.10;52.50;;;;;;5108411;27;20336;-72
2022/03/22 12:05:01;;;;;;;35.00;23.53;;;18.20;52.70;;;;;;5090681;28;20660;-72
2022/03/22 12:07:39;;;;;;;34.47;23.40;;;18.30;52.60;;;;;;5091937;28;20309;-72
2022/03/22 12:10:14;;;;;;;35.97;24.33;;;18.40;51.80;;;;;;5100123;28;20285;-71
2022/03/22 12:12:43;;;;;;;30.83;22.33;;;18.40;51.80;;;;;;5106298;28;20303;-72
2022/03/22 12:15:11;;;;;;;31.40;24.17;;;18.50;51.90;;;;;;5108780;27;20281;-72
2022/03/22 12:17:38;;;;;;;30.70;22.30;;;18.60;51.50;;;;;;5105709;28;20364;-72
2022/03/22 12:20:11;;;;;;;28.70;21.93;;;18.70;51.10;;;;;;5106707;28;20550;-72
2022/03/22 12:22:45;;;;;;;29.47;21.00;;;18.80;50.90;;;;;;5099168;28;20293;-71
2022/03/22 12:25:17;;;;;;;29.80;22.63;;;18.80;50.10;;;;;;5099317;28;20655;-70
2022/03/22 12:27:57;;;;;;;28.07;21.07;;;18.80;50.20;;;;;;5132674;27;20326;-69
2022/03/22 12:30:28;;;;;;;29.40;21.33;;;18.90;49.20;;;;;;5125850;27;20633;-70
2022/03/22 12:32:55;;;;;;;30.83;23.23;;;18.90;49.60;;;;;;5094875;28;20281;-70
2022/03/22 12:35:22;;;;;;;30.43;20.83;;;19.00;49.10;;;;;;5126362;27;20335;-70
2022/03/22 12:37:49;;;;;;;28.37;20.00;;;19.10;49.60;;;;;;5098831;28;20354;-70
2022/03/22 12:40:19;;;;;;;29.37;20.33;;;19.10;48.50;;;;;;5095763;28;20285;-70
2022/03/22 12:42:47;;;;;;;28.60;19.27;;;19.10;47.60;;;;;;5097950;28;20890;-71
2022/03/22 12:45:13;;;;;;;26.33;19.30;;;19.10;47.70;;;;;;5123386;27;20707;-71
2022/03/22 12:47:40;;;;;;;26.30;18.37;;;19.10;47.60;;;;;;5095163;28;20310;-71
2022/03/22 12:50:08;;;;;;;26.80;19.67;;;19.20;48.10;;;;;;5112342;27;20377;-70
2022/03/22 12:52:34;;;;;;;27.47;18.70;;;19.20;48.20;;;;;;5107436;27;20371;-70
2022/03/22 12:55:01;;;;;;;25.10;19.17;;;19.30;47.20;;;;;;5080460;27;20373;-70
2022/03/22 12:57:27;;;;;;;26.93;19.03;;;19.40;46.50;;;;;;5089344;28;20297;-70
2022/03/22 12:59:52;;;;;;;31.10;19.57;;;19.40;46.30;;;;;;5117939;27;20665;-71
2022/03/22 13:02:22;;;;;;;28.17;19.47;;;19.40;46.90;;;;;;5095806;28;20552;-71
2022/03/22 13:04:50;;;;;;;29.17;19.03;;;19.50;47.00;;;;;;5074460;28;20065;-71
2022/03/22 13:07:24;;;;;;;26.17;19.17;;;19.50;46.90;;;;;;5082251;28;20294;-71
2022/03/22 13:12:37;;;;;;;28.67;19.00;;;19.60;46.80;;;;;;5088508;28;20297;-70
2022/03/22 13:15:23;;;;;;;25.03;18.10;;;19.70;47.10;;;;;;5083056;27;20419;-70
2022/03/22 13:17:52;;;;;;;24.70;18.07;;;19.80;47.10;;;;;;5072920;27;20081;-70
2022/03/22 13:20:24;;;;;;;27.50;18.90;;;19.90;47.10;;;;;;5056930;28;20297;-71
2022/03/22 13:23:04;;;;;;;29.07;19.77;;;20.00;46.40;;;;;;5097853;28;20039;-71